Kezdőlap
METAR-TAF:

METAR-TAF

Repülőterek :

olajfúró torony

Hoorn-a, Hollandia

földrajzi szélesség: 52-55-05N, földrajzi hosszúság: 4-09-01E, magasság: 41 m

Jelenlegi meteorológiai megfigyelések

A jelentés 35 perccel ezelõtt készült, 19:25 UTC
Délnyugati szél 25 kt
Hőmérséklet 9°C
Páratartalom 76%
Légköri nyomás 1015 hPa
Látótávolság 10 km, vagy több
Kevés felhő 3600 lábon
Szórványos felhőzet 4300 lábon
Szakadozott felhőzet 4800 lábon

METAR: EHQE 221925Z AUTO 22025KT 9999 FEW036 SCT043 BKN048 09/05 Q1015

Idő: 21:00 (20:00 UTC)


TAF: hiányzik

Meteorológiai megfigyelések és előrejelzések több, mint 4000 repülőtéren (METAR és TAF jelentéseket).

A térképen piros és sárga pontok jelzik az elérhető meteorológiai állomásokat.

Mozgassa az egeret a pont fölött, hogy megjelenjen az állomás neve.

Azután kattintson az időjárási megfigyelések és előrejelzések megtekintéséhez.

A térkép megváltoztatása: kattintson a fekete keresztel jelölt zöld gombra ráközelítéshez, a vonallal jelölt zöld gombra távolításhoz, vagy a zöld nyilakra a szomszédos térképek eléréséhez.


METAR-TAF: